Time;durP1;ratioP1;P1;durP2;ratioP2;P2;SDS_P1;SDS_P2;PMS_P1;PMS_P2;Temp;Humidity;BMP_temperature;BMP_pressure;BME280_temperature;BME280_humidity;BME280_pressure;Samples;Min_cycle;Max_cycle;Signal;HPM_P1;HPM_P2
2021/06/14 04:27:26;;;;;;;7.40;4.13;;;12.60;80.70;;;;;;5257377;22;20243;-90
2021/06/14 04:30:14;;;;;;;5.55;4.22;;;12.60;80.10;;;;;;5085749;28;20206;-89
2021/06/14 04:32:42;;;;;;;6.35;4.00;;;12.70;79.00;;;;;;5071261;28;20252;-90
2021/06/14 04:35:11;;;;;;;6.70;4.28;;;12.70;78.60;;;;;;5068033;28;20228;-88
2021/06/14 04:37:38;;;;;;;4.80;3.95;;;12.70;78.20;;;;;;5032608;28;20229;-89
2021/06/14 04:40:27;;;;;;;5.78;3.80;;;12.80;78.10;;;;;;5047042;28;20210;-89
2021/06/14 04:46:09;;;;;;;7.07;4.60;;;13.10;79.60;;;;;;5025278;28;20201;-88
2021/06/14 05:10:54;;;;;;;6.35;3.70;;;13.60;74.30;;;;;;5308727;22;20233;-90
2021/06/14 05:13:21;;;;;;;4.55;3.50;;;13.70;71.90;;;;;;5035926;28;20195;-89
2021/06/14 05:16:06;;;;;;;6.13;3.95;;;13.80;71.50;;;;;;5040856;28;20253;-88
2021/06/14 05:37:53;;;;;;;6.40;3.33;;;14.40;64.30;;;;;;5005950;28;20605;-94
2021/06/14 05:40:20;;;;;;;6.43;3.47;;;14.50;65.20;;;;;;4992461;28;20208;-92
2021/06/14 05:42:48;;;;;;;5.85;3.88;;;14.70;63.00;;;;;;5007558;28;20232;-90
2021/06/14 05:45:21;;;;;;;8.02;3.92;;;14.80;63.90;;;;;;5003312;28;20234;-88
2021/06/14 05:47:48;;;;;;;5.65;4.07;;;15.00;66.10;;;;;;4986767;28;20332;-93
2021/06/14 06:05:49;;;;;;;6.63;4.28;;;15.30;60.70;;;;;;5012382;28;20561;-92
2021/06/14 06:08:16;;;;;;;7.97;3.78;;;15.40;62.40;;;;;;5005232;28;20226;-86
2021/06/14 06:10:43;;;;;;;9.20;3.75;;;15.60;59.10;;;;;;5001524;28;20200;-88
2021/06/14 06:13:10;;;;;;;6.22;3.70;;;15.60;59.40;;;;;;5006407;28;20709;-88
2021/06/14 06:15:37;;;;;;;7.80;3.90;;;15.60;59.60;;;;;;5002878;28;20550;-91
2021/06/14 06:18:19;;;;;;;7.30;3.83;;;15.60;59.40;;;;;;4996581;28;20238;-88
2021/06/14 06:55:35;;;;;;;7.43;3.60;;;16.50;55.60;;;;;;5478349;23;20249;-92
2021/06/14 06:58:03;;;;;;;4.57;3.30;;;16.60;55.10;;;;;;5017797;28;20231;-91
2021/06/14 07:00:31;;;;;;;6.30;3.05;;;16.50;54.70;;;;;;5022560;28;20199;-91
2021/06/14 07:02:58;;;;;;;5.93;3.58;;;16.60;56.60;;;;;;5019620;28;20222;-91
2021/06/14 07:05:25;;;;;;;7.20;3.67;;;16.80;56.80;;;;;;5020831;28;20188;-90
2021/06/14 07:14:02;;;;;;;6.68;3.25;;;17.50;55.00;;;;;;5014880;28;20202;-90
2021/06/14 07:16:31;;;;;;;4.07;2.67;;;19.10;51.50;;;;;;5023652;28;20711;-89
2021/06/14 07:19:00;;;;;;;8.13;3.63;;;22.00;41.50;;;;;;5038542;28;20191;-88
2021/06/14 07:21:27;;;;;;;6.15;3.15;;;22.90;34.50;;;;;;5033261;28;20242;-90
2021/06/14 07:23:54;;;;;;;4.72;3.30;;;24.60;32.30;;;;;;5037862;28;20210;-87
2021/06/14 07:26:27;;;;;;;6.60;3.30;;;23.90;30.90;;;;;;5023499;28;20257;-87
2021/06/14 07:28:54;;;;;;;4.13;2.97;;;23.10;34.70;;;;;;5018354;28;20195;-88
2021/06/14 07:31:21;;;;;;;5.60;3.17;;;22.50;34.10;;;;;;5018389;28;20195;-89
2021/06/14 07:37:20;;;;;;;6.93;2.83;;;21.00;35.00;;;;;;5001853;28;20541;-91
2021/06/14 07:40:01;;;;;;;5.45;3.05;;;20.60;36.70;;;;;;5008569;28;20196;-90
2021/06/14 07:42:30;;;;;;;9.57;3.38;;;20.10;37.00;;;;;;5009682;28;20302;-90
2021/06/14 07:44:56;;;;;;;6.07;3.42;;;19.70;40.90;;;;;;5141161;23;20238;-91
2021/06/14 07:47:52;;;;;;;4.47;3.20;;;19.70;41.20;;;;;;5005055;28;20204;-89
2021/06/14 07:50:20;;;;;;;3.88;2.83;;;19.60;40.60;;;;;;5000630;28;20200;-92
2021/06/14 07:52:47;;;;;;;7.65;3.20;;;19.40;42.10;;;;;;5000741;28;20195;-91
2021/06/14 08:05:53;;;;;;;5.13;3.17;;;19.50;41.10;;;;;;5369648;23;20241;-90
2021/06/14 08:08:20;;;;;;;5.03;2.80;;;19.60;40.50;;;;;;5015063;28;20237;-89
2021/06/14 08:10:49;;;;;;;3.97;3.03;;;20.00;38.40;;;;;;5021543;28;20275;-88
2021/06/14 08:13:16;;;;;;;5.00;2.90;;;20.60;36.30;;;;;;5010422;28;20224;-86
2021/06/14 08:15:43;;;;;;;4.20;2.70;;;21.40;33.90;;;;;;5003517;28;20302;-88
2021/06/14 08:18:20;;;;;;;6.43;3.40;;;23.10;31.10;;;;;;5014334;28;20292;-89
2021/06/14 08:21:01;;;;;;;5.22;2.95;;;22.30;32.30;;;;;;5019017;28;20238;-89
2021/06/14 08:26:13;;;;;;;6.07;2.90;;;27.40;22.10;;;;;;5018928;28;20225;-90
2021/06/14 08:28:40;;;;;;;5.18;3.25;;;29.10;18.70;;;;;;5013615;28;20239;-90
2021/06/14 08:31:07;;;;;;;7.00;3.45;;;28.90;18.00;;;;;;5023509;28;20205;-91
2021/06/14 08:33:34;;;;;;;4.25;3.03;;;29.20;16.30;;;;;;5028543;28;20199;-89
2021/06/14 08:36:03;;;;;;;6.13;3.40;;;30.70;17.00;;;;;;5005607;28;20694;-87
2021/06/14 08:38:32;;;;;;;5.35;3.25;;;32.00;15.20;;;;;;5012655;28;20207;-88
2021/06/14 08:40:59;;;;;;;4.90;3.55;;;32.60;13.60;;;;;;5011557;28;20198;-87
2021/06/14 08:43:26;;;;;;;6.13;3.13;;;32.30;13.60;;;;;;5011398;28;20202;-87
2021/06/14 08:45:53;;;;;;;3.75;3.10;;;31.90;13.60;;;;;;5014678;28;20306;-87
2021/06/14 08:48:21;;;;;;;4.88;3.28;;;31.70;15.40;;;;;;5019369;28;20224;-85
2021/06/14 08:50:48;;;;;;;5.43;3.53;;;30.40;14.10;;;;;;5023470;28;20194;-87
2021/06/14 08:53:17;;;;;;;5.45;3.50;;;31.60;14.60;;;;;;5020611;28;20229;-86
2021/06/14 08:55:46;;;;;;;5.30;3.15;;;32.30;13.60;;;;;;5015350;28;20222;-87
2021/06/14 08:58:13;;;;;;;4.30;3.70;;;32.90;13.00;;;;;;5019059;28;20226;-86
2021/06/14 09:00:40;;;;;;;3.78;3.38;;;31.20;14.10;;;;;;5013738;28;20194;-88
2021/06/14 09:03:07;;;;;;;3.88;3.55;;;33.50;12.90;;;;;;5011342;28;20257;-88
2021/06/14 09:05:34;;;;;;;3.97;3.50;;;34.10;10.90;;;;;;5007325;28;20211;-86
2021/06/14 09:08:08;;;;;;;6.88;4.00;;;34.30;11.80;;;;;;5006632;28;20238;-88
2021/06/14 09:10:38;;;;;;;5.18;3.75;;;34.50;10.90;;;;;;5004310;28;20201;-85
2021/06/14 09:13:14;;;;;;;5.75;3.70;;;34.30;10.40;;;;;;5005335;28;20720;-88
2021/06/14 09:15:43;;;;;;;6.95;3.72;;;33.80;11.00;;;;;;5011462;28;20226;-88
2021/06/14 09:18:33;;;;;;;4.10;3.60;;;33.80;11.50;;;;;;5004085;28;20725;-90
2021/06/14 09:21:02;;;;;;;5.30;4.18;;;34.40;10.20;;;;;;5004582;28;20211;-90
2021/06/14 09:23:40;;;;;;;4.65;4.20;;;34.20;12.00;;;;;;5005102;28;20301;-89
2021/06/14 09:26:20;;;;;;;6.88;4.28;;;34.50;11.30;;;;;;5008999;28;20286;-92
2021/06/14 09:28:48;;;;;;;4.22;3.83;;;34.00;11.20;;;;;;5002338;28;20198;-89
2021/06/14 09:31:47;;;;;;;4.50;4.15;;;34.10;12.10;;;;;;5013218;28;20564;-92
2021/06/14 09:34:20;;;;;;;7.25;4.22;;;34.20;12.60;;;;;;5014684;28;20194;-89
2021/06/14 09:37:39;;;;;;;4.55;4.15;;;34.50;11.50;;;;;;5006846;28;20256;-93
2021/06/14 09:40:07;;;;;;;4.43;4.03;;;34.60;10.90;;;;;;5006493;28;20199;-91
2021/06/14 09:42:40;;;;;;;6.07;4.72;;;34.40;10.40;;;;;;4999311;28;20231;-90
2021/06/14 09:45:09;;;;;;;4.90;4.50;;;33.90;10.80;;;;;;5005526;28;20196;-91
2021/06/14 09:47:35;;;;;;;4.80;4.40;;;33.70;11.90;;;;;;5011686;28;20219;-93
2021/06/14 09:52:46;;;;;;;4.30;4.00;;;34.90;10.50;;;;;;5016771;28;20219;-91
2021/06/14 09:55:16;;;;;;;4.63;3.90;;;34.20;12.10;;;;;;5298354;23;20695;-88
2021/06/14 09:57:45;;;;;;;4.80;4.07;;;33.80;12.20;;;;;;4987959;28;20223;-85
2021/06/14 10:00:13;;;;;;;4.68;4.28;;;34.40;10.50;;;;;;5000488;28;20206;-83
2021/06/14 10:02:40;;;;;;;4.47;3.97;;;32.90;12.00;;;;;;4990342;28;20230;-86
2021/06/14 10:05:16;;;;;;;6.75;5.28;;;34.00;11.50;;;;;;5001717;28;20202;-86
2021/06/14 10:07:48;;;;;;;5.20;4.45;;;34.10;11.90;;;;;;4994868;28;20916;-89
2021/06/14 10:10:22;;;;;;;5.93;4.60;;;34.70;11.60;;;;;;4995620;28;20199;-83
2021/06/14 10:12:52;;;;;;;4.65;4.10;;;35.70;9.80;;;;;;4993445;28;20223;-84
2021/06/14 10:15:29;;;;;;;6.43;4.68;;;36.10;10.30;;;;;;4999724;28;20214;-85
2021/06/14 10:17:56;;;;;;;7.55;4.70;;;35.70;9.80;;;;;;5011157;28;20245;-86
2021/06/14 10:20:25;;;;;;;4.70;4.30;;;35.70;9.90;;;;;;5021849;28;20224;-87
2021/06/14 10:22:54;;;;;;;4.88;4.20;;;35.30;10.70;;;;;;5001810;28;20237;-88
2021/06/14 10:25:22;;;;;;;6.07;4.40;;;34.60;10.40;;;;;;4995273;28;20219;-89
2021/06/14 10:27:53;;;;;;;4.97;4.50;;;34.90;10.10;;;;;;4992743;28;20231;-88
2021/06/14 10:30:23;;;;;;;4.40;4.00;;;34.40;10.20;;;;;;4993349;28;20203;-87
2021/06/14 10:32:50;;;;;;;5.30;4.10;;;33.90;11.30;;;;;;4992630;28;20215;-86
2021/06/14 10:35:20;;;;;;;4.53;4.13;;;33.70;11.00;;;;;;4993648;28;20204;-84
2021/06/14 10:37:48;;;;;;;5.18;3.70;;;33.60;12.80;;;;;;4995042;28;20227;-84
2021/06/14 10:40:17;;;;;;;4.45;3.58;;;34.20;12.10;;;;;;4996271;28;20203;-83
2021/06/14 10:42:46;;;;;;;5.47;3.88;;;33.70;13.40;;;;;;4989680;28;20226;-86
2021/06/14 10:45:18;;;;;;;5.60;4.45;;;34.00;13.80;;;;;;4987703;28;20287;-85
2021/06/14 10:47:47;;;;;;;7.07;4.05;;;33.30;12.70;;;;;;4991995;28;20230;-85
2021/06/14 10:50:19;;;;;;;12.05;3.53;;;33.30;12.20;;;;;;4991471;28;20196;-84
2021/06/14 10:52:47;;;;;;;4.88;3.60;;;32.90;13.60;;;;;;4995777;28;20235;-86
2021/06/14 10:55:16;;;;;;;3.60;3.30;;;32.80;13.90;;;;;;5001418;28;20207;-86
2021/06/14 10:57:43;;;;;;;6.22;3.88;;;33.20;17.10;;;;;;5014374;28;20242;-86
2021/06/14 11:06:53;;;;;;;5.22;3.22;;;31.60;14.90;;;;;;4983899;28;20223;-89
2021/06/14 11:12:31;;;;;;;4.88;3.08;;;30.00;16.60;;;;;;5054784;22;20237;-95
2021/06/14 11:15:09;;;;;;;3.88;2.90;;;28.80;17.00;;;;;;5036813;28;20224;-90
2021/06/14 11:17:37;;;;;;;5.35;2.70;;;28.20;18.40;;;;;;5051238;28;20233;-89
2021/06/14 11:30:28;;;;;;;5.03;2.65;;;26.10;22.50;;;;;;5037939;28;20179;-87
2021/06/14 11:33:02;;;;;;;3.85;2.80;;;26.30;22.60;;;;;;5030764;28;20210;-89
2021/06/14 11:35:30;;;;;;;7.13;3.13;;;26.30;20.30;;;;;;5049763;28;20913;-87
2021/06/14 11:38:05;;;;;;;3.50;2.67;;;26.20;21.20;;;;;;5050170;28;20233;-89
2021/06/14 11:40:34;;;;;;;7.35;2.95;;;26.10;21.10;;;;;;5051201;28;20340;-89
2021/06/14 11:43:08;;;;;;;5.60;2.92;;;26.00;23.40;;;;;;5049934;28;20226;-89
2021/06/14 11:45:39;;;;;;;5.88;2.90;;;25.90;21.90;;;;;;5048206;28;20275;-88
2021/06/14 11:48:19;;;;;;;5.45;3.30;;;25.90;26.10;;;;;;5047667;28;20234;-87
2021/06/14 11:50:46;;;;;;;5.93;2.92;;;26.00;25.00;;;;;;5051115;28;20198;-90
2021/06/14 11:53:13;;;;;;;5.25;2.70;;;25.90;24.00;;;;;;5049337;28;20234;-90
2021/06/14 11:55:47;;;;;;;4.32;2.55;;;26.10;21.10;;;;;;5037477;28;20205;-88
2021/06/14 11:58:15;;;;;;;3.72;2.78;;;25.50;23.80;;;;;;5033174;28;20225;-90
2021/06/14 12:04:10;;;;;;;3.53;2.35;;;25.70;24.50;;;;;;5054083;28;20256;-92
2021/06/14 12:06:45;;;;;;;4.95;3.15;;;25.90;22.90;;;;;;5044072;28;20559;-92
2021/06/14 12:09:31;;;;;;;5.80;3.13;;;25.90;24.70;;;;;;5063498;28;20221;-92
2021/06/14 12:12:06;;;;;;;4.32;3.03;;;25.80;24.50;;;;;;5056262;28;20228;-91
2021/06/14 12:14:33;;;;;;;4.18;3.00;;;25.90;26.40;;;;;;5039662;28;20195;-91
2021/06/14 12:17:02;;;;;;;7.05;3.00;;;25.90;24.10;;;;;;5008913;28;20236;-89
2021/06/14 12:19:32;;;;;;;5.70;2.75;;;25.80;24.20;;;;;;4998280;28;20200;-92
2021/06/14 12:22:58;;;;;;;7.00;2.70;;;25.70;24.70;;;;;;4979808;28;20222;-89
2021/06/14 12:25:25;;;;;;;9.13;2.90;;;25.60;28.90;;;;;;5012564;28;20203;-91
2021/06/14 12:31:15;;;;;;;4.05;2.58;;;25.70;22.00;;;;;;5037891;28;20178;-88
2021/06/14 12:33:44;;;;;;;4.13;2.95;;;25.60;23.80;;;;;;5024838;28;20621;-87
2021/06/14 12:36:13;;;;;;;5.47;3.47;;;25.60;24.80;;;;;;5024001;28;20242;-88
2021/06/14 12:55:24;;;;;;;9.45;2.85;;;25.50;24.40;;;;;;5386784;22;20610;-89
2021/06/14 12:58:15;;;;;;;8.10;2.63;;;25.50;24.30;;;;;;5000271;28;20276;-88
2021/06/14 13:01:05;;;;;;;4.40;2.53;;;25.50;24.70;;;;;;4996828;28;20595;-88
2021/06/14 13:03:34;;;;;;;8.15;2.83;;;25.40;24.70;;;;;;4996261;28;20211;-89
2021/06/14 13:06:01;;;;;;;6.45;2.80;;;25.30;27.10;;;;;;4995813;28;20210;-90
2021/06/14 13:08:36;;;;;;;10.68;3.03;;;25.50;24.80;;;;;;4996187;28;20627;-89
2021/06/14 13:11:05;;;;;;;6.65;3.08;;;25.40;24.60;;;;;;4992983;28;20207;-89
2021/06/14 13:13:35;;;;;;;5.07;2.67;;;25.40;25.60;;;;;;4996986;28;20210;-86
2021/06/14 13:16:06;;;;;;;8.60;3.10;;;25.50;23.40;;;;;;5003726;28;20199;-87
2021/06/14 13:26:15;;;;;;;4.82;2.47;;;25.60;24.00;;;;;;5004382;28;20598;-86
2021/06/14 13:28:44;;;;;;;4.63;2.78;;;25.50;23.80;;;;;;5003803;28;20553;-86
2021/06/14 13:31:15;;;;;;;7.15;2.95;;;25.40;24.30;;;;;;5003359;28;20211;-86
2021/06/14 13:41:20;;;;;;;5.97;2.80;;;25.50;24.70;;;;;;5002782;28;20195;-87
2021/06/14 13:43:50;;;;;;;6.13;2.58;;;25.40;24.60;;;;;;4985294;28;20226;-86
2021/06/14 13:46:18;;;;;;;6.25;2.80;;;25.30;25.10;;;;;;4998197;28;20235;-88
2021/06/14 13:48:47;;;;;;;5.30;2.92;;;25.20;24.90;;;;;;5000479;28;20195;-88
2021/06/14 13:51:22;;;;;;;5.93;3.13;;;25.20;25.40;;;;;;4993492;28;20203;-91
2021/06/14 13:54:00;;;;;;;5.85;2.60;;;25.40;24.70;;;;;;4988743;28;20278;-92
2021/06/14 13:56:31;;;;;;;5.63;2.70;;;25.00;25.20;;;;;;4995056;28;20237;-91
2021/06/14 13:59:17;;;;;;;8.95;2.97;;;24.90;25.00;;;;;;4993356;28;20210;-90
2021/06/14 14:01:52;;;;;;;4.93;2.70;;;25.00;24.50;;;;;;4991727;28;20623;-90
2021/06/14 14:04:21;;;;;;;3.42;2.78;;;24.90;25.00;;;;;;4988789;28;20722;-91
2021/06/14 14:06:48;;;;;;;4.38;2.75;;;25.00;24.40;;;;;;4990900;28;20263;-91
2021/06/14 14:09:15;;;;;;;3.42;2.42;;;25.10;24.50;;;;;;4992010;28;20295;-91
2021/06/14 14:11:42;;;;;;;5.75;2.60;;;25.10;23.80;;;;;;4987493;28;20563;-91
2021/06/14 14:14:13;;;;;;;8.93;3.03;;;25.10;24.10;;;;;;4988068;28;20204;-91
2021/06/14 14:16:41;;;;;;;7.85;2.80;;;25.10;25.50;;;;;;4990181;28;20240;-91
2021/06/14 14:19:10;;;;;;;5.93;2.53;;;25.10;24.50;;;;;;4992115;28;20207;-87
2021/06/14 14:21:46;;;;;;;5.90;2.75;;;25.10;23.80;;;;;;4995752;28;20289;-89
2021/06/14 14:24:14;;;;;;;4.93;2.67;;;25.20;24.50;;;;;;4994546;28;20774;-90
2021/06/14 14:26:44;;;;;;;4.97;2.38;;;25.10;25.10;;;;;;4987067;28;20709;-90
2021/06/14 14:32:58;;;;;;;5.85;2.95;;;25.00;23.30;;;;;;4994647;28;20310;-89
2021/06/14 14:35:36;;;;;;;4.57;3.00;;;25.00;24.50;;;;;;4978023;28;20189;-87
2021/06/14 14:38:23;;;;;;;5.22;2.20;;;25.20;24.50;;;;;;4993468;28;20591;-90
2021/06/14 14:40:51;;;;;;;9.43;2.80;;;25.30;23.10;;;;;;4994534;28;20279;-89
2021/06/14 14:43:18;;;;;;;3.28;2.50;;;25.10;23.50;;;;;;4991259;28;20228;-91
2021/06/14 14:45:47;;;;;;;4.93;2.60;;;24.80;23.00;;;;;;4992533;28;20667;-89
2021/06/14 14:48:16;;;;;;;4.00;2.50;;;24.80;23.50;;;;;;4975264;28;20223;-88
2021/06/14 14:53:28;;;;;;;4.65;2.50;;;24.90;23.20;;;;;;4998169;28;20750;-90
2021/06/14 14:55:55;;;;;;;7.68;2.88;;;24.80;23.00;;;;;;4994850;28;20211;-87
2021/06/14 14:58:27;;;;;;;3.55;2.97;;;24.90;21.90;;;;;;4996822;28;20231;-92
2021/06/14 15:01:33;;;;;;;6.57;2.70;;;24.80;21.40;;;;;;5001806;28;20250;-90
2021/06/14 15:10:52;;;;;;;5.40;2.45;;;24.70;21.40;;;;;;5024104;28;20215;-86
2021/06/14 15:13:22;;;;;;;3.83;2.35;;;24.80;21.50;;;;;;5020034;28;20230;-87
2021/06/14 15:15:54;;;;;;;2.28;2.00;;;24.80;21.50;;;;;;5019268;28;20202;-87
2021/06/14 15:18:23;;;;;;;5.18;2.30;;;24.80;20.80;;;;;;5021391;28;20226;-88
2021/06/14 15:20:52;;;;;;;5.07;2.28;;;24.70;21.20;;;;;;5022540;28;20196;-87
2021/06/14 15:23:54;;;;;;;3.17;2.20;;;24.80;22.30;;;;;;5016050;28;20262;-86
2021/06/14 15:26:23;;;;;;;7.18;2.03;;;24.50;21.40;;;;;;5035498;28;20253;-86
2021/06/14 15:28:50;;;;;;;3.08;1.95;;;24.60;20.30;;;;;;5035309;28;20214;-87
2021/06/14 15:31:31;;;;;;;5.63;2.28;;;24.70;20.00;;;;;;5024439;28;20195;-86
2021/06/14 15:33:58;;;;;;;5.05;2.03;;;24.40;20.00;;;;;;5026058;28;20199;-88
2021/06/14 15:36:28;;;;;;;4.75;2.00;;;24.50;20.00;;;;;;5016947;28;20614;-88
2021/06/14 15:38:55;;;;;;;4.03;2.17;;;24.50;20.00;;;;;;5015183;28;20208;-87
2021/06/14 15:41:24;;;;;;;3.38;2.17;;;24.50;19.40;;;;;;5021222;28;20313;-87
2021/06/14 15:43:52;;;;;;;3.95;1.92;;;24.50;20.40;;;;;;5017616;28;20199;-89
2021/06/14 15:46:22;;;;;;;5.93;2.30;;;24.40;19.40;;;;;;5017055;28;20230;-89
2021/06/14 15:48:51;;;;;;;2.67;2.00;;;24.40;19.70;;;;;;5025416;28;20234;-88
2021/06/14 15:51:59;;;;;;;4.30;2.10;;;24.20;19.60;;;;;;5017999;28;20227;-91
2021/06/14 15:57:02;;;;;;;3.53;1.90;;;24.30;19.70;;;;;;5404387;23;20225;-91
2021/06/14 15:59:49;;;;;;;4.68;2.00;;;24.30;19.00;;;;;;5055359;28;20189;-94
2021/06/14 16:02:16;;;;;;;6.22;1.85;;;24.20;19.50;;;;;;5037467;28;20230;-92
2021/06/14 16:17:01;;;;;;;4.75;2.10;;;24.30;18.50;;;;;;5050034;28;20191;-92
2021/06/14 16:19:30;;;;;;;4.18;2.00;;;24.20;20.20;;;;;;5042394;28;20273;-89
2021/06/14 16:21:57;;;;;;;3.50;2.20;;;24.20;20.20;;;;;;5055647;28;20201;-90
2021/06/14 16:24:24;;;;;;;2.78;2.00;;;24.00;21.00;;;;;;5056240;28;20198;-90
2021/06/14 16:30:51;;;;;;;6.78;2.42;;;23.80;21.50;;;;;;5041044;28;20189;-90
2021/06/14 16:36:56;;;;;;;4.80;2.45;;;23.60;21.40;;;;;;5069624;28;20232;-86
2021/06/14 16:42:52;;;;;;;3.58;2.35;;;23.50;22.20;;;;;;5057876;28;20271;-89
2021/06/14 16:45:42;;;;;;;5.93;2.40;;;23.50;22.00;;;;;;5067809;28;20692;-94
2021/06/14 16:54:37;;;;;;;5.10;2.60;;;23.50;22.10;;;;;;5082850;23;20715;-92
2021/06/14 16:57:19;;;;;;;6.55;2.35;;;23.50;24.30;;;;;;5037888;28;20305;-91
2021/06/14 16:59:46;;;;;;;3.63;2.40;;;23.40;23.80;;;;;;5037980;28;20202;-91
2021/06/14 17:02:15;;;;;;;3.78;2.17;;;23.40;23.80;;;;;;5037788;28;20198;-91
2021/06/14 17:04:44;;;;;;;5.93;2.30;;;23.30;23.10;;;;;;5036473;28;20203;-91
2021/06/14 17:14:16;;;;;;;5.22;2.00;;;23.20;24.90;;;;;;5037662;28;20225;-91
2021/06/14 17:20:27;;;;;;;5.85;2.33;;;23.00;25.40;;;;;;5025737;28;20345;-89
2021/06/14 17:22:54;;;;;;;6.95;2.50;;;22.90;25.50;;;;;;5035773;28;20200;-91
2021/06/14 17:25:21;;;;;;;6.82;2.63;;;22.80;25.60;;;;;;5038061;28;20203;-90
2021/06/14 17:31:10;;;;;;;5.32;2.38;;;22.80;25.40;;;;;;5047766;28;20547;-89
2021/06/14 17:33:37;;;;;;;3.88;2.20;;;22.70;25.90;;;;;;5030926;28;20194;-88
2021/06/14 17:39:44;;;;;;;6.65;2.35;;;22.60;25.50;;;;;;5038133;28;20250;-94
2021/06/14 17:42:12;;;;;;;6.15;2.20;;;22.60;25.30;;;;;;5020171;28;20655;-89
2021/06/14 17:48:20;;;;;;;8.35;2.50;;;22.50;25.30;;;;;;5033886;28;20257;-89
2021/06/14 17:50:49;;;;;;;3.10;2.20;;;22.40;26.10;;;;;;5036443;28;20206;-90
2021/06/14 17:53:16;;;;;;;5.18;3.63;;;22.40;26.30;;;;;;5212023;23;20736;-91
2021/06/14 17:56:00;;;;;;;3.38;2.40;;;22.30;26.10;;;;;;5017983;28;20559;-93
2021/06/14 17:59:08;;;;;;;6.43;2.83;;;22.30;26.70;;;;;;4999794;28;20223;-91
2021/06/14 18:01:36;;;;;;;4.07;2.75;;;22.20;26.70;;;;;;5020144;28;20202;-92
2021/06/14 18:04:47;;;;;;;4.95;2.47;;;22.20;26.70;;;;;;5022455;28;20282;-91
2021/06/14 18:07:14;;;;;;;4.30;2.45;;;22.10;26.40;;;;;;5021129;28;20199;-88
2021/06/14 18:09:54;;;;;;;4.47;2.30;;;22.00;26.70;;;;;;5022343;28;20199;-87
2021/06/14 18:12:22;;;;;;;10.23;2.78;;;21.90;26.70;;;;;;5021302;28;20223;-87
2021/06/14 18:14:49;;;;;;;5.43;2.67;;;21.90;26.40;;;;;;5022750;28;20199;-88
2021/06/14 18:17:16;;;;;;;5.35;2.50;;;21.90;26.60;;;;;;5020316;28;20249;-85
2021/06/14 18:19:51;;;;;;;2.97;2.20;;;21.80;26.70;;;;;;5018262;28;20606;-92
2021/06/14 18:22:23;;;;;;;4.30;2.38;;;21.70;27.20;;;;;;5020963;28;20224;-90
2021/06/14 18:25:10;;;;;;;4.75;2.40;;;21.70;27.60;;;;;;4993635;28;20210;-90
2021/06/14 18:28:21;;;;;;;3.70;2.30;;;21.60;27.40;;;;;;5030033;28;20234;-90
2021/06/14 18:33:31;;;;;;;4.50;2.42;;;21.50;28.00;;;;;;4967279;28;20219;-88
2021/06/14 18:36:03;;;;;;;4.38;2.72;;;21.40;28.50;;;;;;5020516;28;20213;-90
2021/06/14 18:38:40;;;;;;;4.10;2.75;;;21.30;28.80;;;;;;5036593;28;20238;-91
2021/06/14 18:43:52;;;;;;;4.30;2.47;;;21.20;28.70;;;;;;5014640;28;20762;-91
2021/06/14 18:46:22;;;;;;;6.70;2.65;;;21.20;29.80;;;;;;5025988;28;20668;-88
2021/06/14 18:48:51;;;;;;;3.90;2.05;;;21.10;28.70;;;;;;5026940;28;20274;-89
2021/06/14 18:51:39;;;;;;;5.57;2.92;;;21.10;28.70;;;;;;5026304;28;20538;-89
2021/06/14 18:54:07;;;;;;;6.28;2.20;;;21.10;28.70;;;;;;5027967;28;20288;-90
2021/06/14 18:56:41;;;;;;;5.20;2.55;;;21.00;29.60;;;;;;5021274;28;20222;-87
2021/06/14 18:59:13;;;;;;;5.22;2.75;;;20.80;30.00;;;;;;5023828;28;20222;-87
2021/06/14 19:01:41;;;;;;;3.28;2.30;;;20.80;31.10;;;;;;5015915;28;20219;-92
2021/06/14 19:04:10;;;;;;;4.43;2.70;;;20.70;31.60;;;;;;5023427;28;20628;-90
2021/06/14 19:06:39;;;;;;;6.18;2.67;;;20.50;32.50;;;;;;5019269;28;20227;-87
2021/06/14 19:16:06;;;;;;;5.75;2.92;;;20.10;32.20;;;;;;5024426;28;20214;-87
2021/06/14 19:35:39;;;;;;;5.63;2.70;;;19.40;34.90;;;;;;5015825;28;20198;-90
2021/06/14 19:38:06;;;;;;;3.63;2.60;;;19.30;35.70;;;;;;5009981;28;20215;-89
2021/06/14 19:47:21;;;;;;;6.30;2.92;;;19.00;36.90;;;;;;5008415;28;20717;-88
2021/06/14 19:59:02;;;;;;;7.60;3.08;;;18.70;39.20;;;;;;5058939;28;20653;-89
2021/06/14 20:01:43;;;;;;;9.77;3.30;;;18.70;39.60;;;;;;5074239;28;20196;-90
2021/06/14 20:04:10;;;;;;;7.32;3.28;;;18.50;39.80;;;;;;5078470;28;20216;-91
2021/06/14 20:06:37;;;;;;;7.82;3.30;;;18.50;40.60;;;;;;5065638;28;20225;-91
2021/06/14 20:09:04;;;;;;;4.35;3.00;;;18.40;40.10;;;;;;5058683;28;20198;-90
2021/06/14 20:11:33;;;;;;;6.30;4.20;;;18.40;40.30;;;;;;5061130;28;20225;-89
2021/06/14 20:14:00;;;;;;;4.53;3.30;;;18.30;41.00;;;;;;5043943;28;20202;-90
2021/06/14 20:16:27;;;;;;;5.43;3.17;;;18.20;41.00;;;;;;5061551;28;20221;-90
2021/06/14 20:18:54;;;;;;;3.65;3.00;;;18.20;41.70;;;;;;5065687;28;20223;-91
2021/06/14 20:21:21;;;;;;;5.57;3.42;;;18.10;42.10;;;;;;5061805;28;20257;-91
2021/06/14 20:23:47;;;;;;;7.75;3.72;;;18.10;43.40;;;;;;5060100;28;20197;-91
2021/06/14 20:30:17;;;;;;;6.70;3.63;;;18.00;43.40;;;;;;5058008;28;20197;-88
2021/06/14 20:32:45;;;;;;;7.05;3.78;;;18.00;45.20;;;;;;5054489;28;20225;-90
2021/06/14 20:35:13;;;;;;;5.15;3.63;;;17.90;44.70;;;;;;5069691;28;20203;-94
2021/06/14 20:37:40;;;;;;;5.65;3.85;;;17.90;44.30;;;;;;5078067;28;20231;-92
2021/06/14 20:40:59;;;;;;;7.35;3.63;;;17.80;44.30;;;;;;5076638;28;20229;-93
2021/06/14 20:57:12;;;;;;;7.38;4.43;;;17.50;46.90;;;;;;5043278;28;20317;-94
2021/06/14 21:11:02;;;;;;;8.13;3.90;;;17.40;45.70;;;;;;5026614;28;20183;-93
2021/06/14 21:13:31;;;;;;;7.78;5.15;;;17.50;47.00;;;;;;5020911;28;20231;-90
2021/06/14 21:15:59;;;;;;;7.80;4.68;;;17.50;47.60;;;;;;5020346;28;20192;-93
2021/06/14 21:59:53;;;;;;;6.00;3.60;;;16.40;55.70;;;;;;5916769;22;20230;-89
2021/06/14 22:02:20;;;;;;;6.30;3.42;;;16.40;56.20;;;;;;5033266;28;20708;-91
2021/06/14 22:05:30;;;;;;;6.90;3.58;;;16.30;55.70;;;;;;5036220;28;20190;-91
2021/06/14 22:18:50;;;;;;;5.68;3.83;;;16.10;59.50;;;;;;5039171;28;20190;-89
2021/06/14 22:21:18;;;;;;;7.82;4.03;;;16.00;61.10;;;;;;5028703;28;20297;-90
2021/06/14 22:23:45;;;;;;;8.43;3.97;;;15.90;61.30;;;;;;5024736;28;20222;-90
